sensor_id;sensor_type;location;lat;lon;timestamp;temperature;humidity
12089;DHT22;6107;49.078;8.578;2022-10-16T00:01:41;16.40;99.90
12089;DHT22;6107;49.078;8.578;2022-10-16T00:04:06;16.40;99.90
12089;DHT22;6107;49.078;8.578;2022-10-16T00:06:32;16.40;99.90
12089;DHT22;6107;49.078;8.578;2022-10-16T00:08:58;16.30;99.90
12089;DHT22;6107;49.078;8.578;2022-10-16T00:11:29;16.20;99.90
12089;DHT22;6107;49.078;8.578;2022-10-16T00:13:58;16.30;99.90
12089;DHT22;6107;49.078;8.578;2022-10-16T00:16:24;16.30;99.90
12089;DHT22;6107;49.078;8.578;2022-10-16T00:18:49;16.40;99.90
12089;DHT22;6107;49.078;8.578;2022-10-16T00:21:18;16.40;99.90
12089;DHT22;6107;49.078;8.578;2022-10-16T00:23:44;16.40;99.90
12089;DHT22;6107;49.078;8.578;2022-10-16T00:26:13;16.40;99.90
12089;DHT22;6107;49.078;8.578;2022-10-16T00:28:39;16.40;99.90
12089;DHT22;6107;49.078;8.578;2022-10-16T00:31:06;16.40;99.90
12089;DHT22;6107;49.078;8.578;2022-10-16T00:33:32;16.50;99.90
12089;DHT22;6107;49.078;8.578;2022-10-16T00:35:58;16.50;99.90
12089;DHT22;6107;49.078;8.578;2022-10-16T00:38:24;16.40;99.90
12089;DHT22;6107;49.078;8.578;2022-10-16T00:40:50;16.40;99.90
12089;DHT22;6107;49.078;8.578;2022-10-16T00:46:07;16.40;99.90
12089;DHT22;6107;49.078;8.578;2022-10-16T00:48:34;16.40;99.90
12089;DHT22;6107;49.078;8.578;2022-10-16T00:50:59;16.30;99.90
12089;DHT22;6107;49.078;8.578;2022-10-16T00:53:25;16.40;99.90
12089;DHT22;6107;49.078;8.578;2022-10-16T00:55:53;16.30;99.90
12089;DHT22;6107;49.078;8.578;2022-10-16T00:58:19;16.20;99.90
12089;DHT22;6107;49.078;8.578;2022-10-16T01:00:45;16.30;99.90
12089;DHT22;6107;49.078;8.578;2022-10-16T01:03:29;16.30;99.90
12089;DHT22;6107;49.078;8.578;2022-10-16T01:06:13;16.30;99.90
12089;DHT22;6107;49.078;8.578;2022-10-16T01:08:53;16.20;99.90
12089;DHT22;6107;49.078;8.578;2022-10-16T01:11:38;16.30;99.90
12089;DHT22;6107;49.078;8.578;2022-10-16T01:14:19;16.20;99.90
12089;DHT22;6107;49.078;8.578;2022-10-16T01:16:59;16.20;99.90
12089;DHT22;6107;49.078;8.578;2022-10-16T01:19:38;16.30;99.90
12089;DHT22;6107;49.078;8.578;2022-10-16T01:22:07;16.30;99.90
12089;DHT22;6107;49.078;8.578;2022-10-16T01:24:40;16.20;99.90
12089;DHT22;6107;49.078;8.578;2022-10-16T01:27:19;16.30;99.90
12089;DHT22;6107;49.078;8.578;2022-10-16T01:30:07;16.30;99.90
12089;DHT22;6107;49.078;8.578;2022-10-16T01:32:42;16.30;99.90
12089;DHT22;6107;49.078;8.578;2022-10-16T01:35:23;16.30;99.90
12089;DHT22;6107;49.078;8.578;2022-10-16T01:38:12;16.30;99.90
12089;DHT22;6107;49.078;8.578;2022-10-16T01:40:44;16.40;99.90
12089;DHT22;6107;49.078;8.578;2022-10-16T01:43:28;16.40;99.90
12089;DHT22;6107;49.078;8.578;2022-10-16T01:45:56;16.30;99.90
12089;DHT22;6107;49.078;8.578;2022-10-16T01:48:23;16.30;99.90
12089;DHT22;6107;49.078;8.578;2022-10-16T01:51:01;16.30;99.90
12089;DHT22;6107;49.078;8.578;2022-10-16T01:53:28;16.30;99.90
12089;DHT22;6107;49.078;8.578;2022-10-16T01:55:55;16.30;99.90
12089;DHT22;6107;49.078;8.578;2022-10-16T01:58:23;16.30;99.90
12089;DHT22;6107;49.078;8.578;2022-10-16T02:00:52;16.30;99.90
12089;DHT22;6107;49.078;8.578;2022-10-16T02:03:19;16.30;99.90
12089;DHT22;6107;49.078;8.578;2022-10-16T02:05:54;16.30;99.90
12089;DHT22;6107;49.078;8.578;2022-10-16T02:08:22;16.20;99.90
12089;DHT22;6107;49.078;8.578;2022-10-16T02:10:49;16.30;99.90
12089;DHT22;6107;49.078;8.578;2022-10-16T02:13:33;16.30;99.90
12089;DHT22;6107;49.078;8.578;2022-10-16T02:15:59;16.30;99.90
12089;DHT22;6107;49.078;8.578;2022-10-16T02:18:26;16.30;99.90
12089;DHT22;6107;49.078;8.578;2022-10-16T02:29:45;16.10;99.90
12089;DHT22;6107;49.078;8.578;2022-10-16T02:32:16;16.10;99.90
12089;DHT22;6107;49.078;8.578;2022-10-16T02:34:44;16.00;99.90
12089;DHT22;6107;49.078;8.578;2022-10-16T02:37:10;15.90;99.90
12089;DHT22;6107;49.078;8.578;2022-10-16T02:39:37;15.90;99.90
12089;DHT22;6107;49.078;8.578;2022-10-16T02:42:03;15.90;99.90
12089;DHT22;6107;49.078;8.578;2022-10-16T02:44:29;15.90;99.90
12089;DHT22;6107;49.078;8.578;2022-10-16T02:46:55;15.90;99.90
12089;DHT22;6107;49.078;8.578;2022-10-16T02:49:20;15.90;99.90
12089;DHT22;6107;49.078;8.578;2022-10-16T02:51:46;15.80;99.90
12089;DHT22;6107;49.078;8.578;2022-10-16T02:54:11;15.70;99.90
12089;DHT22;6107;49.078;8.578;2022-10-16T02:56:38;15.70;99.90
12089;DHT22;6107;49.078;8.578;2022-10-16T02:59:04;15.70;99.90
12089;DHT22;6107;49.078;8.578;2022-10-16T03:01:29;15.70;99.90
12089;DHT22;6107;49.078;8.578;2022-10-16T03:03:55;15.70;99.90
12089;DHT22;6107;49.078;8.578;2022-10-16T03:06:20;15.70;99.90
12089;DHT22;6107;49.078;8.578;2022-10-16T03:08:46;15.60;99.90
12089;DHT22;6107;49.078;8.578;2022-10-16T03:11:11;15.60;99.90
12089;DHT22;6107;49.078;8.578;2022-10-16T03:13:37;15.70;99.90
12089;DHT22;6107;49.078;8.578;2022-10-16T03:16:02;15.50;99.90
12089;DHT22;6107;49.078;8.578;2022-10-16T03:18:28;15.60;99.90
12089;DHT22;6107;49.078;8.578;2022-10-16T03:20:53;15.50;99.90
12089;DHT22;6107;49.078;8.578;2022-10-16T03:23:19;15.60;99.90
12089;DHT22;6107;49.078;8.578;2022-10-16T03:25:44;15.50;99.90
12089;DHT22;6107;49.078;8.578;2022-10-16T03:28:10;15.60;99.90
12089;DHT22;6107;49.078;8.578;2022-10-16T03:30:35;15.70;99.90
12089;DHT22;6107;49.078;8.578;2022-10-16T03:33:01;15.70;99.90
12089;DHT22;6107;49.078;8.578;2022-10-16T03:35:26;15.70;99.90
12089;DHT22;6107;49.078;8.578;2022-10-16T03:37:52;15.70;99.90
12089;DHT22;6107;49.078;8.578;2022-10-16T03:40:18;15.70;99.90
12089;DHT22;6107;49.078;8.578;2022-10-16T03:42:43;15.70;99.90
12089;DHT22;6107;49.078;8.578;2022-10-16T03:45:10;15.60;99.90
12089;DHT22;6107;49.078;8.578;2022-10-16T03:47:36;15.70;99.90
12089;DHT22;6107;49.078;8.578;2022-10-16T03:50:01;15.70;99.90
12089;DHT22;6107;49.078;8.578;2022-10-16T03:52:27;15.70;99.90
12089;DHT22;6107;49.078;8.578;2022-10-16T03:54:52;15.60;99.90
12089;DHT22;6107;49.078;8.578;2022-10-16T03:57:18;15.70;99.90
12089;DHT22;6107;49.078;8.578;2022-10-16T03:59:43;15.60;99.90
12089;DHT22;6107;49.078;8.578;2022-10-16T04:02:09;15.60;99.90
12089;DHT22;6107;49.078;8.578;2022-10-16T04:04:35;15.70;99.90
12089;DHT22;6107;49.078;8.578;2022-10-16T04:07:01;15.70;99.90
12089;DHT22;6107;49.078;8.578;2022-10-16T04:09:27;15.70;99.90
12089;DHT22;6107;49.078;8.578;2022-10-16T04:11:52;15.70;99.90
12089;DHT22;6107;49.078;8.578;2022-10-16T04:14:18;15.70;99.90
12089;DHT22;6107;49.078;8.578;2022-10-16T04:16:44;15.70;99.90
12089;DHT22;6107;49.078;8.578;2022-10-16T04:19:10;15.80;99.90
12089;DHT22;6107;49.078;8.578;2022-10-16T04:21:36;15.50;99.90
12089;DHT22;6107;49.078;8.578;2022-10-16T04:24:02;15.40;99.90
12089;DHT22;6107;49.078;8.578;2022-10-16T04:26:27;15.50;99.90
12089;DHT22;6107;49.078;8.578;2022-10-16T04:28:53;15.40;99.90
12089;DHT22;6107;49.078;8.578;2022-10-16T04:31:19;15.40;99.90
12089;DHT22;6107;49.078;8.578;2022-10-16T04:33:45;15.50;99.90
12089;DHT22;6107;49.078;8.578;2022-10-16T04:36:11;15.60;99.90
12089;DHT22;6107;49.078;8.578;2022-10-16T04:38:36;15.60;99.90
12089;DHT22;6107;49.078;8.578;2022-10-16T04:41:03;15.50;99.90
12089;DHT22;6107;49.078;8.578;2022-10-16T04:43:28;15.50;99.90
12089;DHT22;6107;49.078;8.578;2022-10-16T04:45:54;15.60;99.90
12089;DHT22;6107;49.078;8.578;2022-10-16T04:48:20;15.60;99.90
12089;DHT22;6107;49.078;8.578;2022-10-16T04:50:45;15.70;99.90
12089;DHT22;6107;49.078;8.578;2022-10-16T04:53:11;15.70;99.90
12089;DHT22;6107;49.078;8.578;2022-10-16T04:55:37;15.70;99.90
12089;DHT22;6107;49.078;8.578;2022-10-16T04:58:03;15.60;99.90
12089;DHT22;6107;49.078;8.578;2022-10-16T05:00:29;15.60;99.90
12089;DHT22;6107;49.078;8.578;2022-10-16T05:02:54;15.60;99.90
12089;DHT22;6107;49.078;8.578;2022-10-16T05:05:20;15.70;99.90
12089;DHT22;6107;49.078;8.578;2022-10-16T05:07:47;15.70;99.90
12089;DHT22;6107;49.078;8.578;2022-10-16T05:10:13;15.50;99.90
12089;DHT22;6107;49.078;8.578;2022-10-16T05:12:38;15.50;99.90
12089;DHT22;6107;49.078;8.578;2022-10-16T05:15:04;15.60;99.90
12089;DHT22;6107;49.078;8.578;2022-10-16T05:17:30;15.60;99.90
12089;DHT22;6107;49.078;8.578;2022-10-16T05:19:55;15.60;99.90
12089;DHT22;6107;49.078;8.578;2022-10-16T05:22:21;15.60;99.90
12089;DHT22;6107;49.078;8.578;2022-10-16T05:24:46;15.60;99.90
12089;DHT22;6107;49.078;8.578;2022-10-16T05:27:12;15.50;99.90
12089;DHT22;6107;49.078;8.578;2022-10-16T05:29:45;15.50;99.90
12089;DHT22;6107;49.078;8.578;2022-10-16T05:32:11;15.50;99.90
12089;DHT22;6107;49.078;8.578;2022-10-16T05:34:36;15.60;99.90
12089;DHT22;6107;49.078;8.578;2022-10-16T05:37:02;15.60;99.90
12089;DHT22;6107;49.078;8.578;2022-10-16T05:39:27;15.40;99.90
12089;DHT22;6107;49.078;8.578;2022-10-16T05:41:53;15.30;99.90
12089;DHT22;6107;49.078;8.578;2022-10-16T05:44:18;15.30;99.90
12089;DHT22;6107;49.078;8.578;2022-10-16T05:46:46;15.40;99.90
12089;DHT22;6107;49.078;8.578;2022-10-16T05:49:11;15.30;99.90
12089;DHT22;6107;49.078;8.578;2022-10-16T05:51:37;15.30;99.90
12089;DHT22;6107;49.078;8.578;2022-10-16T05:54:02;15.30;99.90
12089;DHT22;6107;49.078;8.578;2022-10-16T05:56:28;15.40;99.90
12089;DHT22;6107;49.078;8.578;2022-10-16T05:58:53;15.30;99.90
12089;DHT22;6107;49.078;8.578;2022-10-16T06:01:19;15.10;99.90
12089;DHT22;6107;49.078;8.578;2022-10-16T06:03:46;15.20;99.90
12089;DHT22;6107;49.078;8.578;2022-10-16T06:06:17;15.30;99.90
12089;DHT22;6107;49.078;8.578;2022-10-16T06:08:44;15.40;99.90
12089;DHT22;6107;49.078;8.578;2022-10-16T06:11:12;15.40;99.90
12089;DHT22;6107;49.078;8.578;2022-10-16T06:13:38;15.40;99.90
12089;DHT22;6107;49.078;8.578;2022-10-16T06:16:07;15.20;99.90
12089;DHT22;6107;49.078;8.578;2022-10-16T06:18:33;15.30;99.90
12089;DHT22;6107;49.078;8.578;2022-10-16T06:20:59;15.30;99.90
12089;DHT22;6107;49.078;8.578;2022-10-16T06:23:25;15.30;99.90
12089;DHT22;6107;49.078;8.578;2022-10-16T06:25:51;15.40;99.90
12089;DHT22;6107;49.078;8.578;2022-10-16T06:28:16;15.40;99.90
12089;DHT22;6107;49.078;8.578;2022-10-16T06:30:42;15.40;99.90
12089;DHT22;6107;49.078;8.578;2022-10-16T06:33:11;15.40;99.90
12089;DHT22;6107;49.078;8.578;2022-10-16T06:35:37;15.40;99.90
12089;DHT22;6107;49.078;8.578;2022-10-16T06:38:02;15.50;99.90
12089;DHT22;6107;49.078;8.578;2022-10-16T06:40:28;15.40;99.90
12089;DHT22;6107;49.078;8.578;2022-10-16T06:42:57;15.40;99.90
12089;DHT22;6107;49.078;8.578;2022-10-16T06:45:22;15.50;99.90
12089;DHT22;6107;49.078;8.578;2022-10-16T06:47:48;15.50;99.90
12089;DHT22;6107;49.078;8.578;2022-10-16T06:50:14;15.40;99.90
12089;DHT22;6107;49.078;8.578;2022-10-16T06:52:39;15.50;99.90
12089;DHT22;6107;49.078;8.578;2022-10-16T06:55:05;15.50;99.90
12089;DHT22;6107;49.078;8.578;2022-10-16T06:57:31;15.50;99.90
12089;DHT22;6107;49.078;8.578;2022-10-16T06:59:56;15.60;99.90
12089;DHT22;6107;49.078;8.578;2022-10-16T07:02:22;15.60;99.90
12089;DHT22;6107;49.078;8.578;2022-10-16T07:04:47;15.60;99.90
12089;DHT22;6107;49.078;8.578;2022-10-16T07:07:13;15.70;99.90
12089;DHT22;6107;49.078;8.578;2022-10-16T07:09:39;15.70;99.90
12089;DHT22;6107;49.078;8.578;2022-10-16T07:12:05;15.80;99.90
12089;DHT22;6107;49.078;8.578;2022-10-16T07:14:30;15.90;99.90
12089;DHT22;6107;49.078;8.578;2022-10-16T07:16:56;15.90;99.90
12089;DHT22;6107;49.078;8.578;2022-10-16T07:19:21;15.90;99.90
12089;DHT22;6107;49.078;8.578;2022-10-16T07:21:47;16.00;99.90
12089;DHT22;6107;49.078;8.578;2022-10-16T07:24:14;16.10;99.90
12089;DHT22;6107;49.078;8.578;2022-10-16T07:26:41;16.10;99.90
12089;DHT22;6107;49.078;8.578;2022-10-16T07:29:12;16.20;99.90
12089;DHT22;6107;49.078;8.578;2022-10-16T07:31:38;16.30;99.90
12089;DHT22;6107;49.078;8.578;2022-10-16T07:34:05;16.30;99.90
12089;DHT22;6107;49.078;8.578;2022-10-16T07:36:30;16.40;99.90
12089;DHT22;6107;49.078;8.578;2022-10-16T07:38:56;16.40;99.90
12089;DHT22;6107;49.078;8.578;2022-10-16T07:41:22;16.50;99.90
12089;DHT22;6107;49.078;8.578;2022-10-16T07:43:49;16.50;99.90
12089;DHT22;6107;49.078;8.578;2022-10-16T07:46:15;16.50;99.90
12089;DHT22;6107;49.078;8.578;2022-10-16T07:48:41;16.50;99.90
12089;DHT22;6107;49.078;8.578;2022-10-16T07:51:11;16.60;99.90
12089;DHT22;6107;49.078;8.578;2022-10-16T07:53:36;16.60;99.90
12089;DHT22;6107;49.078;8.578;2022-10-16T07:56:04;16.70;99.90
12089;DHT22;6107;49.078;8.578;2022-10-16T07:58:31;16.80;99.90
12089;DHT22;6107;49.078;8.578;2022-10-16T08:00:57;16.80;99.90
12089;DHT22;6107;49.078;8.578;2022-10-16T08:03:23;16.80;99.90
12089;DHT22;6107;49.078;8.578;2022-10-16T08:05:49;16.90;99.90
12089;DHT22;6107;49.078;8.578;2022-10-16T08:08:16;16.90;99.90
12089;DHT22;6107;49.078;8.578;2022-10-16T08:10:42;16.90;99.90
12089;DHT22;6107;49.078;8.578;2022-10-16T08:13:08;17.00;99.90
12089;DHT22;6107;49.078;8.578;2022-10-16T08:15:33;17.00;99.90
12089;DHT22;6107;49.078;8.578;2022-10-16T08:18:01;17.10;99.90
12089;DHT22;6107;49.078;8.578;2022-10-16T08:20:27;17.10;99.90
12089;DHT22;6107;49.078;8.578;2022-10-16T08:22:53;17.30;99.90
12089;DHT22;6107;49.078;8.578;2022-10-16T08:25:20;17.40;99.90
12089;DHT22;6107;49.078;8.578;2022-10-16T08:27:45;17.40;99.90
12089;DHT22;6107;49.078;8.578;2022-10-16T08:30:11;17.50;99.90
12089;DHT22;6107;49.078;8.578;2022-10-16T08:32:37;17.60;99.90
12089;DHT22;6107;49.078;8.578;2022-10-16T08:35:02;17.60;99.90
12089;DHT22;6107;49.078;8.578;2022-10-16T08:37:31;17.80;99.90
12089;DHT22;6107;49.078;8.578;2022-10-16T08:39:58;17.90;99.90
12089;DHT22;6107;49.078;8.578;2022-10-16T08:45:30;18.40;99.90
12089;DHT22;6107;49.078;8.578;2022-10-16T08:48:17;18.50;99.90
12089;DHT22;6107;49.078;8.578;2022-10-16T08:50:45;18.40;99.90
12089;DHT22;6107;49.078;8.578;2022-10-16T08:53:31;18.30;99.90
12089;DHT22;6107;49.078;8.578;2022-10-16T08:56:01;18.20;99.90
12089;DHT22;6107;49.078;8.578;2022-10-16T08:58:28;18.20;99.90
12089;DHT22;6107;49.078;8.578;2022-10-16T09:00:56;18.20;99.90
12089;DHT22;6107;49.078;8.578;2022-10-16T09:06:26;18.30;99.90
12089;DHT22;6107;49.078;8.578;2022-10-16T09:09:14;18.40;99.90
12089;DHT22;6107;49.078;8.578;2022-10-16T09:14:42;18.50;99.90
12089;DHT22;6107;49.078;8.578;2022-10-16T09:19:53;18.50;99.90
12089;DHT22;6107;49.078;8.578;2022-10-16T09:22:22;18.40;99.90
12089;DHT22;6107;49.078;8.578;2022-10-16T09:24:51;18.30;99.90
12089;DHT22;6107;49.078;8.578;2022-10-16T09:27:17;18.30;99.90
12089;DHT22;6107;49.078;8.578;2022-10-16T09:29:43;18.30;99.90
12089;DHT22;6107;49.078;8.578;2022-10-16T09:32:14;18.40;99.90
12089;DHT22;6107;49.078;8.578;2022-10-16T09:34:52;18.40;99.90
12089;DHT22;6107;49.078;8.578;2022-10-16T09:37:21;18.50;99.90
12089;DHT22;6107;49.078;8.578;2022-10-16T09:39:50;18.50;99.90
12089;DHT22;6107;49.078;8.578;2022-10-16T09:42:23;18.40;99.90
12089;DHT22;6107;49.078;8.578;2022-10-16T09:44:52;18.50;99.90
12089;DHT22;6107;49.078;8.578;2022-10-16T09:47:21;19.10;99.90
12089;DHT22;6107;49.078;8.578;2022-10-16T09:49:56;19.60;99.90
12089;DHT22;6107;49.078;8.578;2022-10-16T09:52:23;19.50;99.90
12089;DHT22;6107;49.078;8.578;2022-10-16T09:57:16;19.30;99.90
12089;DHT22;6107;49.078;8.578;2022-10-16T09:59:53;19.30;99.90
12089;DHT22;6107;49.078;8.578;2022-10-16T10:04:53;19.60;99.90
12089;DHT22;6107;49.078;8.578;2022-10-16T10:07:46;19.60;99.90
12089;DHT22;6107;49.078;8.578;2022-10-16T10:10:41;19.90;99.90
12089;DHT22;6107;49.078;8.578;2022-10-16T10:13:21;20.00;99.90
12089;DHT22;6107;49.078;8.578;2022-10-16T10:15:47;20.50;99.90
12089;DHT22;6107;49.078;8.578;2022-10-16T10:18:18;20.50;99.90
12089;DHT22;6107;49.078;8.578;2022-10-16T10:20:44;20.60;99.90
12089;DHT22;6107;49.078;8.578;2022-10-16T10:23:20;21.20;99.90
12089;DHT22;6107;49.078;8.578;2022-10-16T10:26:05;21.20;99.90
12089;DHT22;6107;49.078;8.578;2022-10-16T10:28:59;21.60;99.90
12089;DHT22;6107;49.078;8.578;2022-10-16T10:31:49;21.40;99.90
12089;DHT22;6107;49.078;8.578;2022-10-16T10:35:11;21.20;99.90
12089;DHT22;6107;49.078;8.578;2022-10-16T10:40:32;21.90;99.90
12089;DHT22;6107;49.078;8.578;2022-10-16T10:43:19;22.40;99.90
12089;DHT22;6107;49.078;8.578;2022-10-16T10:45:49;22.70;99.90
12089;DHT22;6107;49.078;8.578;2022-10-16T10:51:12;23.20;99.90
12089;DHT22;6107;49.078;8.578;2022-10-16T10:54:03;23.10;99.90
12089;DHT22;6107;49.078;8.578;2022-10-16T11:02:19;22.20;99.90
12089;DHT22;6107;49.078;8.578;2022-10-16T11:07:52;21.70;99.90
12089;DHT22;6107;49.078;8.578;2022-10-16T11:10:22;22.00;99.90
12089;DHT22;6107;49.078;8.578;2022-10-16T11:12:55;22.30;99.90
12089;DHT22;6107;49.078;8.578;2022-10-16T11:15:32;22.30;99.90
12089;DHT22;6107;49.078;8.578;2022-10-16T11:18:20;22.00;99.90
12089;DHT22;6107;49.078;8.578;2022-10-16T11:20:51;21.90;99.90
12089;DHT22;6107;49.078;8.578;2022-10-16T11:23:25;21.60;99.90
12089;DHT22;6107;49.078;8.578;2022-10-16T11:25:52;21.60;99.90
12089;DHT22;6107;49.078;8.578;2022-10-16T11:28:45;21.90;99.90
12089;DHT22;6107;49.078;8.578;2022-10-16T11:31:26;22.00;99.90
12089;DHT22;6107;49.078;8.578;2022-10-16T11:34:22;21.90;99.90
12089;DHT22;6107;49.078;8.578;2022-10-16T11:37:07;22.10;99.90
12089;DHT22;6107;49.078;8.578;2022-10-16T11:39:34;22.20;99.90
12089;DHT22;6107;49.078;8.578;2022-10-16T11:42:18;22.40;99.90
12089;DHT22;6107;49.078;8.578;2022-10-16T11:47:54;22.40;99.90
12089;DHT22;6107;49.078;8.578;2022-10-16T11:50:37;22.40;99.90
12089;DHT22;6107;49.078;8.578;2022-10-16T11:53:57;22.20;99.90
12089;DHT22;6107;49.078;8.578;2022-10-16T11:56:01;22.20;99.90
12089;DHT22;6107;49.078;8.578;2022-10-16T12:01:24;22.10;99.90
12089;DHT22;6107;49.078;8.578;2022-10-16T12:03:58;22.10;99.90
12089;DHT22;6107;49.078;8.578;2022-10-16T12:09:32;22.10;99.90
12089;DHT22;6107;49.078;8.578;2022-10-16T12:11:58;22.70;99.90
12089;DHT22;6107;49.078;8.578;2022-10-16T12:17:03;23.10;99.90
12089;DHT22;6107;49.078;8.578;2022-10-16T12:19:31;22.90;99.90
12089;DHT22;6107;49.078;8.578;2022-10-16T12:22:00;22.70;99.90
12089;DHT22;6107;49.078;8.578;2022-10-16T12:24:41;22.70;99.90
12089;DHT22;6107;49.078;8.578;2022-10-16T12:27:32;22.40;99.90
12089;DHT22;6107;49.078;8.578;2022-10-16T12:30:00;22.40;99.90
12089;DHT22;6107;49.078;8.578;2022-10-16T12:32:37;22.50;99.90
12089;DHT22;6107;49.078;8.578;2022-10-16T12:35:16;22.40;99.90
12089;DHT22;6107;49.078;8.578;2022-10-16T12:37:42;22.30;99.90
12089;DHT22;6107;49.078;8.578;2022-10-16T12:40:27;22.70;99.90
12089;DHT22;6107;49.078;8.578;2022-10-16T12:42:53;22.80;99.90
12089;DHT22;6107;49.078;8.578;2022-10-16T12:45:31;23.10;99.90
12089;DHT22;6107;49.078;8.578;2022-10-16T12:47:59;23.30;99.90
12089;DHT22;6107;49.078;8.578;2022-10-16T12:50:36;23.30;99.90
12089;DHT22;6107;49.078;8.578;2022-10-16T12:53:04;23.30;99.90
12089;DHT22;6107;49.078;8.578;2022-10-16T12:58:18;22.90;99.90
12089;DHT22;6107;49.078;8.578;2022-10-16T13:00:57;22.80;99.90
12089;DHT22;6107;49.078;8.578;2022-10-16T13:14:51;21.20;99.90
12089;DHT22;6107;49.078;8.578;2022-10-16T13:17:53;21.00;99.90
12089;DHT22;6107;49.078;8.578;2022-10-16T13:20:35;21.00;99.90
12089;DHT22;6107;49.078;8.578;2022-10-16T13:23:19;20.70;99.90
12089;DHT22;6107;49.078;8.578;2022-10-16T13:28:33;20.50;99.90
12089;DHT22;6107;49.078;8.578;2022-10-16T13:31:00;20.40;99.90
12089;DHT22;6107;49.078;8.578;2022-10-16T13:33:40;20.30;99.90
12089;DHT22;6107;49.078;8.578;2022-10-16T13:36:34;20.30;99.90
12089;DHT22;6107;49.078;8.578;2022-10-16T13:42:04;20.30;99.90
12089;DHT22;6107;49.078;8.578;2022-10-16T13:44:42;20.30;99.90
12089;DHT22;6107;49.078;8.578;2022-10-16T13:47:28;20.30;99.90
12089;DHT22;6107;49.078;8.578;2022-10-16T13:52:26;20.20;99.90
12089;DHT22;6107;49.078;8.578;2022-10-16T13:54:52;20.10;99.90
12089;DHT22;6107;49.078;8.578;2022-10-16T13:57:18;20.10;99.90
12089;DHT22;6107;49.078;8.578;2022-10-16T13:59:46;20.10;99.90
12089;DHT22;6107;49.078;8.578;2022-10-16T14:02:27;20.00;99.90
12089;DHT22;6107;49.078;8.578;2022-10-16T14:04:55;20.00;99.90
12089;DHT22;6107;49.078;8.578;2022-10-16T14:07:27;19.90;99.90
12089;DHT22;6107;49.078;8.578;2022-10-16T14:09:54;19.90;99.90
12089;DHT22;6107;49.078;8.578;2022-10-16T14:12:20;19.90;99.90
12089;DHT22;6107;49.078;8.578;2022-10-16T14:14:49;19.90;99.90
12089;DHT22;6107;49.078;8.578;2022-10-16T14:19:50;19.80;99.90
12089;DHT22;6107;49.078;8.578;2022-10-16T14:22:37;19.70;99.90
12089;DHT22;6107;49.078;8.578;2022-10-16T14:30:16;19.60;99.90
12089;DHT22;6107;49.078;8.578;2022-10-16T14:32:57;19.80;99.90
12089;DHT22;6107;49.078;8.578;2022-10-16T14:35:28;20.00;99.90
12089;DHT22;6107;49.078;8.578;2022-10-16T14:42:52;19.80;99.90
12089;DHT22;6107;49.078;8.578;2022-10-16T14:45:24;19.90;99.90
12089;DHT22;6107;49.078;8.578;2022-10-16T14:47:54;20.10;99.90
12089;DHT22;6107;49.078;8.578;2022-10-16T14:50:21;20.20;99.90
12089;DHT22;6107;49.078;8.578;2022-10-16T14:52:47;20.40;99.90
12089;DHT22;6107;49.078;8.578;2022-10-16T14:55:14;20.50;99.90
12089;DHT22;6107;49.078;8.578;2022-10-16T14:57:40;20.50;99.90
12089;DHT22;6107;49.078;8.578;2022-10-16T15:00:20;20.60;99.90
12089;DHT22;6107;49.078;8.578;2022-10-16T15:02:47;20.50;99.90
12089;DHT22;6107;49.078;8.578;2022-10-16T15:07:42;20.30;99.90
12089;DHT22;6107;49.078;8.578;2022-10-16T15:10:08;20.40;99.90
12089;DHT22;6107;49.078;8.578;2022-10-16T15:12:33;20.50;99.90
12089;DHT22;6107;49.078;8.578;2022-10-16T15:14:59;20.30;99.90
12089;DHT22;6107;49.078;8.578;2022-10-16T15:17:24;20.10;99.90
12089;DHT22;6107;49.078;8.578;2022-10-16T15:19:50;19.90;99.90
12089;DHT22;6107;49.078;8.578;2022-10-16T15:22:16;19.50;99.90
12089;DHT22;6107;49.078;8.578;2022-10-16T15:24:42;19.40;99.90
12089;DHT22;6107;49.078;8.578;2022-10-16T15:27:08;19.40;99.90
12089;DHT22;6107;49.078;8.578;2022-10-16T15:29:33;19.40;99.90
12089;DHT22;6107;49.078;8.578;2022-10-16T15:31:59;19.20;99.90
12089;DHT22;6107;49.078;8.578;2022-10-16T15:34:24;19.30;99.90
12089;DHT22;6107;49.078;8.578;2022-10-16T15:36:50;19.30;99.90
12089;DHT22;6107;49.078;8.578;2022-10-16T15:39:18;19.20;99.90
12089;DHT22;6107;49.078;8.578;2022-10-16T15:41:45;19.10;99.90
12089;DHT22;6107;49.078;8.578;2022-10-16T15:44:19;19.10;99.90
12089;DHT22;6107;49.078;8.578;2022-10-16T15:46:46;19.20;99.90
12089;DHT22;6107;49.078;8.578;2022-10-16T15:49:12;19.10;99.90
12089;DHT22;6107;49.078;8.578;2022-10-16T15:51:39;19.10;99.90
12089;DHT22;6107;49.078;8.578;2022-10-16T15:54:05;19.00;99.90
12089;DHT22;6107;49.078;8.578;2022-10-16T15:56:31;18.90;99.90
12089;DHT22;6107;49.078;8.578;2022-10-16T15:59:01;18.90;99.90
12089;DHT22;6107;49.078;8.578;2022-10-16T16:01:27;18.90;99.90
12089;DHT22;6107;49.078;8.578;2022-10-16T16:03:55;18.90;99.90
12089;DHT22;6107;49.078;8.578;2022-10-16T16:06:21;18.80;99.90
12089;DHT22;6107;49.078;8.578;2022-10-16T16:08:48;18.90;99.90
12089;DHT22;6107;49.078;8.578;2022-10-16T16:11:15;18.80;99.90
12089;DHT22;6107;49.078;8.578;2022-10-16T16:13:40;18.70;99.90
12089;DHT22;6107;49.078;8.578;2022-10-16T16:16:11;18.70;99.90
12089;DHT22;6107;49.078;8.578;2022-10-16T16:18:37;18.80;99.90
12089;DHT22;6107;49.078;8.578;2022-10-16T16:21:04;18.60;99.90
12089;DHT22;6107;49.078;8.578;2022-10-16T16:23:30;18.50;99.90
12089;DHT22;6107;49.078;8.578;2022-10-16T16:26:23;18.40;99.90
12089;DHT22;6107;49.078;8.578;2022-10-16T16:28:52;18.40;99.90
12089;DHT22;6107;49.078;8.578;2022-10-16T16:31:18;18.30;99.90
12089;DHT22;6107;49.078;8.578;2022-10-16T16:33:44;18.00;99.90
12089;DHT22;6107;49.078;8.578;2022-10-16T16:36:10;18.00;99.90
12089;DHT22;6107;49.078;8.578;2022-10-16T16:38:36;17.90;99.90
12089;DHT22;6107;49.078;8.578;2022-10-16T16:43:37;17.80;99.90
12089;DHT22;6107;49.078;8.578;2022-10-16T16:46:02;17.80;99.90
12089;DHT22;6107;49.078;8.578;2022-10-16T16:48:29;17.70;99.90
12089;DHT22;6107;49.078;8.578;2022-10-16T16:50:54;17.70;99.90
12089;DHT22;6107;49.078;8.578;2022-10-16T16:53:20;17.80;99.90
12089;DHT22;6107;49.078;8.578;2022-10-16T16:58:20;17.90;99.90
12089;DHT22;6107;49.078;8.578;2022-10-16T17:00:46;17.80;99.90
12089;DHT22;6107;49.078;8.578;2022-10-16T17:03:12;17.70;99.90
12089;DHT22;6107;49.078;8.578;2022-10-16T17:05:37;17.80;99.90
12089;DHT22;6107;49.078;8.578;2022-10-16T17:08:06;17.50;99.90
12089;DHT22;6107;49.078;8.578;2022-10-16T17:10:32;17.40;99.90
12089;DHT22;6107;49.078;8.578;2022-10-16T17:12:58;17.40;99.90
12089;DHT22;6107;49.078;8.578;2022-10-16T17:15:23;17.20;99.90
12089;DHT22;6107;49.078;8.578;2022-10-16T17:17:49;16.90;99.90
12089;DHT22;6107;49.078;8.578;2022-10-16T17:20:15;16.90;99.90
12089;DHT22;6107;49.078;8.578;2022-10-16T17:22:40;16.90;99.90
12089;DHT22;6107;49.078;8.578;2022-10-16T17:25:06;17.00;99.90
12089;DHT22;6107;49.078;8.578;2022-10-16T17:27:33;17.10;99.90
12089;DHT22;6107;49.078;8.578;2022-10-16T17:30:00;16.90;99.90
12089;DHT22;6107;49.078;8.578;2022-10-16T17:32:25;17.00;99.90
12089;DHT22;6107;49.078;8.578;2022-10-16T17:34:51;16.80;99.90
12089;DHT22;6107;49.078;8.578;2022-10-16T17:37:17;16.70;99.90